createdAt,value
2018-05-16T00:00:54.559Z,0.00
2018-05-16T00:01:54.835Z,0.00
2018-05-16T00:02:55.043Z,0.00
2018-05-16T00:03:55.284Z,0.00
2018-05-16T00:04:55.527Z,0.00
2018-05-16T00:05:55.766Z,0.00
2018-05-16T00:06:56.010Z,0.00
2018-05-16T00:07:56.258Z,0.00
2018-05-16T00:08:56.518Z,0.00
2018-05-16T00:09:56.734Z,0.00
2018-05-16T00:10:56.976Z,0.00
2018-05-16T00:11:57.218Z,0.00
2018-05-16T00:12:57.458Z,0.00
2018-05-16T00:13:57.703Z,0.00
2018-05-16T00:14:57.939Z,0.00
2018-05-16T00:15:58.178Z,0.00
2018-05-16T00:16:58.418Z,0.00
2018-05-16T00:17:58.660Z,0.00
2018-05-16T00:18:58.904Z,0.00
2018-05-16T00:19:59.141Z,0.00
2018-05-16T00:20:59.384Z,0.00
2018-05-16T00:21:59.625Z,0.00
2018-05-16T00:22:59.867Z,0.00
2018-05-16T00:24:00.109Z,0.00
2018-05-16T00:25:00.390Z,0.00
2018-05-16T00:26:00.594Z,0.00
2018-05-16T00:27:00.834Z,0.00
2018-05-16T00:28:01.075Z,0.00
2018-05-16T00:29:01.313Z,0.00
2018-05-16T00:30:01.555Z,0.00
2018-05-16T00:31:01.797Z,0.00
2018-05-16T00:32:02.037Z,0.00
2018-05-16T00:33:02.281Z,0.00
2018-05-16T00:34:02.519Z,0.00
2018-05-16T00:35:02.761Z,0.00
2018-05-16T00:36:03.004Z,0.00
2018-05-16T00:37:03.243Z,0.00
2018-05-16T00:38:03.486Z,0.00
2018-05-16T00:39:03.727Z,0.00
2018-05-16T00:40:03.968Z,0.00
2018-05-16T00:41:04.210Z,0.00
2018-05-16T00:42:04.450Z,0.00
2018-05-16T00:43:04.689Z,0.00
2018-05-16T00:44:04.941Z,0.00
2018-05-16T00:45:05.176Z,0.00
2018-05-16T00:46:05.419Z,0.00
2018-05-16T00:47:05.659Z,0.00
2018-05-16T00:48:05.901Z,0.00
2018-05-16T00:49:06.245Z,0.00
2018-05-16T00:50:06.388Z,0.00
2018-05-16T00:51:06.628Z,0.00
2018-05-16T00:52:06.868Z,0.00
2018-05-16T00:53:07.111Z,0.00
2018-05-16T00:54:07.350Z,0.00
2018-05-16T00:55:07.593Z,0.00
2018-05-16T00:56:07.834Z,0.00
2018-05-16T00:57:08.075Z,0.00
2018-05-16T00:58:08.316Z,0.00
2018-05-16T00:59:08.556Z,0.00
2018-05-16T01:00:08.788Z,0.00
2018-05-16T01:01:09.022Z,0.00
2018-05-16T01:02:09.268Z,0.00
2018-05-16T01:03:09.508Z,0.00
2018-05-16T01:04:09.751Z,0.00
2018-05-16T01:05:09.990Z,0.00
2018-05-16T01:06:10.230Z,0.00
2018-05-16T01:07:10.471Z,0.00
2018-05-16T01:08:10.722Z,0.00
2018-05-16T01:09:10.967Z,0.00
2018-05-16T01:10:11.202Z,0.00
2018-05-16T01:11:11.445Z,0.00
2018-05-16T01:12:11.683Z,0.00
2018-05-16T01:13:11.925Z,0.00
2018-05-16T01:14:12.166Z,0.00
2018-05-16T01:15:12.409Z,0.00
2018-05-16T01:16:12.649Z,0.00
2018-05-16T01:17:12.896Z,0.00
2018-05-16T01:18:13.133Z,0.00
2018-05-16T01:19:13.373Z,0.00
2018-05-16T01:20:13.612Z,0.00
2018-05-16T01:21:13.853Z,0.00
2018-05-16T01:22:14.095Z,0.00
2018-05-16T01:23:14.337Z,0.00
2018-05-16T01:24:14.578Z,0.00
2018-05-16T01:25:14.822Z,0.00
2018-05-16T01:26:15.061Z,0.00
2018-05-16T01:27:15.302Z,0.00
2018-05-16T01:28:15.544Z,0.00
2018-05-16T01:29:15.784Z,0.00
2018-05-16T01:30:16.024Z,0.00
2018-05-16T01:31:16.268Z,0.00
2018-05-16T01:32:16.508Z,0.00
2018-05-16T01:33:16.756Z,0.00
2018-05-16T01:34:16.989Z,0.00
2018-05-16T01:35:17.230Z,0.00
2018-05-16T01:36:17.471Z,0.00
2018-05-16T01:37:17.712Z,0.00
2018-05-16T01:38:17.953Z,0.00
2018-05-16T01:39:18.193Z,0.00
2018-05-16T01:40:18.422Z,0.00
2018-05-16T01:41:18.665Z,0.00
2018-05-16T01:42:18.900Z,0.00
2018-05-16T01:43:19.139Z,0.00
2018-05-16T01:44:19.379Z,0.00
2018-05-16T01:45:19.615Z,0.00
2018-05-16T01:46:19.856Z,0.00
2018-05-16T01:47:20.098Z,0.00
2018-05-16T01:48:20.337Z,0.00
2018-05-16T01:49:20.579Z,0.00
2018-05-16T01:50:20.818Z,0.00
2018-05-16T01:51:21.060Z,0.00
2018-05-16T01:52:21.298Z,0.00
2018-05-16T01:53:21.542Z,0.00
2018-05-16T01:54:21.782Z,0.00
2018-05-16T01:55:22.024Z,0.00
2018-05-16T01:56:22.265Z,0.00
2018-05-16T01:57:22.497Z,0.00
2018-05-16T01:58:22.742Z,0.00
2018-05-16T01:59:22.987Z,0.00
2018-05-16T02:00:23.223Z,0.00
2018-05-16T02:01:23.462Z,0.00
2018-05-16T02:02:23.705Z,0.00
2018-05-16T02:03:23.944Z,0.00
2018-05-16T02:04:24.188Z,0.00
2018-05-16T02:05:24.425Z,0.00
2018-05-16T02:06:24.672Z,0.00
2018-05-16T02:07:24.906Z,0.00
2018-05-16T02:08:25.147Z,0.00
2018-05-16T02:09:25.407Z,0.00
2018-05-16T02:10:25.630Z,0.00
2018-05-16T02:11:25.869Z,0.00
2018-05-16T02:12:26.110Z,0.00
2018-05-16T02:13:26.351Z,0.00
2018-05-16T02:14:26.593Z,0.00
2018-05-16T02:15:26.833Z,0.00
2018-05-16T02:16:27.073Z,0.00
2018-05-16T02:17:27.314Z,0.00
2018-05-16T02:18:27.553Z,0.00
2018-05-16T02:19:27.794Z,0.00
2018-05-16T02:20:28.036Z,0.00
2018-05-16T02:21:28.276Z,0.00
2018-05-16T02:22:28.516Z,0.00
2018-05-16T02:23:28.756Z,0.00
2018-05-16T02:24:28.997Z,0.00
2018-05-16T02:25:29.238Z,0.00
2018-05-16T02:26:29.478Z,0.00
2018-05-16T02:27:29.718Z,0.00
2018-05-16T02:28:29.959Z,0.00
2018-05-16T02:29:30.204Z,0.00
2018-05-16T02:30:30.441Z,0.00
2018-05-16T02:31:30.682Z,0.00
2018-05-16T02:32:30.923Z,0.00
2018-05-16T02:33:31.163Z,0.00
2018-05-16T02:34:31.406Z,0.00
2018-05-16T02:35:31.654Z,0.00
2018-05-16T02:36:31.892Z,0.00
2018-05-16T02:37:32.231Z,0.00
2018-05-16T02:38:32.371Z,0.00
2018-05-16T02:39:32.611Z,0.00
2018-05-16T02:40:32.853Z,0.00
2018-05-16T02:41:33.093Z,0.00
2018-05-16T02:42:33.337Z,0.00
2018-05-16T02:43:33.574Z,0.00
2018-05-16T02:44:33.814Z,0.00
2018-05-16T02:45:34.053Z,0.00
2018-05-16T02:46:34.293Z,0.00
2018-05-16T02:47:34.551Z,0.00
2018-05-16T02:48:34.774Z,0.00
2018-05-16T02:49:35.015Z,0.00
2018-05-16T02:50:35.256Z,0.00
2018-05-16T02:51:35.496Z,0.00
2018-05-16T02:52:35.736Z,0.00
2018-05-16T02:53:35.976Z,0.00
2018-05-16T02:54:36.216Z,0.00
2018-05-16T02:55:36.458Z,0.00
2018-05-16T02:56:36.699Z,4.00
2018-05-16T02:57:36.940Z,4.00
2018-05-16T02:58:37.181Z,4.00
2018-05-16T02:59:37.422Z,0.00
2018-05-16T03:00:37.662Z,4.00
2018-05-16T03:01:37.903Z,4.00
2018-05-16T03:02:38.144Z,4.00
2018-05-16T03:03:38.385Z,4.00
2018-05-16T03:04:38.626Z,4.00
2018-05-16T03:05:38.867Z,4.00
2018-05-16T03:06:39.107Z,12.00
2018-05-16T03:07:39.348Z,12.00
2018-05-16T03:08:39.590Z,16.00
2018-05-16T03:09:39.832Z,12.00
2018-05-16T03:10:40.081Z,16.00
2018-05-16T03:11:40.318Z,20.00
2018-05-16T03:12:40.559Z,24.00
2018-05-16T03:13:40.800Z,28.00
2018-05-16T03:14:41.040Z,32.00
2018-05-16T03:15:41.282Z,36.00
2018-05-16T03:16:41.523Z,36.00
2018-05-16T03:17:41.763Z,40.00
2018-05-16T03:18:42.005Z,40.00
2018-05-16T03:19:42.250Z,40.00
2018-05-16T03:20:42.491Z,44.00
2018-05-16T03:21:42.731Z,56.00
2018-05-16T03:22:42.976Z,56.00
2018-05-16T03:23:43.229Z,64.00
2018-05-16T03:24:43.459Z,72.00
2018-05-16T03:25:43.700Z,80.00
2018-05-16T03:26:43.941Z,88.00
2018-05-16T03:27:44.183Z,88.00
2018-05-16T03:28:44.423Z,92.00
2018-05-16T03:29:44.665Z,108.00
2018-05-16T03:30:44.903Z,120.00
2018-05-16T03:31:45.137Z,140.00
2018-05-16T03:32:45.382Z,148.00
2018-05-16T03:33:45.618Z,164.00
2018-05-16T03:34:45.860Z,176.00
2018-05-16T03:35:46.105Z,196.00
2018-05-16T03:36:46.345Z,228.00
2018-05-16T03:37:46.591Z,252.00
2018-05-16T03:38:46.826Z,296.00
2018-05-16T03:39:47.070Z,332.00
2018-05-16T03:40:47.309Z,360.00
2018-05-16T03:41:47.552Z,368.00
2018-05-16T03:42:47.795Z,356.00
2018-05-16T03:43:48.032Z,340.00
2018-05-16T03:44:48.272Z,332.00
2018-05-16T03:45:48.513Z,312.00
2018-05-16T03:46:48.753Z,308.00
2018-05-16T03:47:48.995Z,312.00
2018-05-16T03:48:49.231Z,380.00
2018-05-16T03:49:49.474Z,420.00
2018-05-16T03:50:49.717Z,420.00
2018-05-16T03:51:49.960Z,396.00
2018-05-16T03:52:50.204Z,348.00
2018-05-16T03:53:50.444Z,368.00
2018-05-16T03:54:50.686Z,384.00
2018-05-16T03:55:50.931Z,332.00
2018-05-16T03:56:51.174Z,324.00
2018-05-16T03:57:51.415Z,320.00
2018-05-16T03:58:51.659Z,364.00
2018-05-16T03:59:51.909Z,428.00
2018-05-16T04:00:52.145Z,504.00
2018-05-16T04:01:52.385Z,552.00
2018-05-16T04:02:52.625Z,532.00
2018-05-16T04:03:52.865Z,488.00
2018-05-16T04:04:53.108Z,472.00
2018-05-16T04:05:53.349Z,456.00
2018-05-16T04:06:53.591Z,372.00
2018-05-16T04:07:53.830Z,292.00
2018-05-16T04:08:54.076Z,244.00
2018-05-16T04:09:54.317Z,240.00
2018-05-16T04:10:54.559Z,316.00
2018-05-16T04:11:54.802Z,424.00
2018-05-16T04:12:55.043Z,552.00
2018-05-16T04:13:55.281Z,704.00
2018-05-16T04:14:55.523Z,768.00
2018-05-16T04:15:55.764Z,772.00
2018-05-16T04:16:57.328Z,780.00
2018-05-16T04:17:56.409Z,916.00
2018-05-16T04:18:56.650Z,1180.00
2018-05-16T04:19:56.892Z,1536.00
2018-05-16T04:20:57.138Z,1816.00
2018-05-16T04:21:57.376Z,1924.00
2018-05-16T04:22:57.619Z,1944.00
2018-05-16T04:23:57.864Z,1880.00
2018-05-16T04:24:58.106Z,1956.00
2018-05-16T04:25:58.346Z,2064.00
2018-05-16T04:26:58.588Z,2092.00
2018-05-16T04:27:58.833Z,2120.00
2018-05-16T04:28:59.073Z,2200.00
2018-05-16T04:29:59.314Z,2340.00
2018-05-16T04:30:59.555Z,2380.00
2018-05-16T04:31:59.796Z,2352.00
2018-05-16T04:33:00.036Z,2308.00
2018-05-16T04:34:00.277Z,2276.00
2018-05-16T04:35:00.521Z,2236.00
2018-05-16T04:36:00.771Z,2216.00
2018-05-16T04:37:01.006Z,2268.00
2018-05-16T04:38:01.250Z,2372.00
2018-05-16T04:39:01.486Z,2556.00
2018-05-16T04:40:01.728Z,2620.00
2018-05-16T04:41:01.974Z,2752.00
2018-05-16T04:42:02.205Z,2948.00
2018-05-16T04:43:02.451Z,3176.00
2018-05-16T04:44:02.693Z,3340.00
2018-05-16T04:45:02.933Z,3496.00
2018-05-16T04:46:03.175Z,3676.00
2018-05-16T04:47:03.417Z,3888.00
2018-05-16T04:48:03.660Z,4120.00
2018-05-16T04:49:03.902Z,4192.00
2018-05-16T04:50:04.144Z,4168.00
2018-05-16T04:51:04.385Z,4168.00
2018-05-16T04:52:04.629Z,4256.00
2018-05-16T04:53:04.869Z,4396.00
2018-05-16T04:54:05.109Z,4508.00
2018-05-16T04:55:05.351Z,4508.00
2018-05-16T04:56:05.593Z,4444.00
2018-05-16T04:57:05.838Z,4512.00
2018-05-16T04:58:06.078Z,4576.00
2018-05-16T04:59:06.323Z,4600.00
2018-05-16T05:00:06.560Z,4660.00
2018-05-16T05:01:06.804Z,4736.00
2018-05-16T05:02:07.046Z,4840.00
2018-05-16T05:03:07.288Z,4960.00
2018-05-16T05:04:07.530Z,5080.00
2018-05-16T05:05:07.772Z,5248.00
2018-05-16T05:06:08.019Z,5396.00
2018-05-16T05:07:08.261Z,5436.00
2018-05-16T05:08:08.506Z,5268.00
2018-05-16T05:09:08.748Z,4948.00
2018-05-16T05:10:08.999Z,4684.00
2018-05-16T05:11:09.233Z,4620.00
2018-05-16T05:12:09.475Z,4724.00
2018-05-16T05:13:09.748Z,4852.00
2018-05-16T05:14:09.961Z,4976.00
2018-05-16T05:15:10.203Z,5168.00
2018-05-16T05:16:10.446Z,5332.00
2018-05-16T05:17:10.690Z,5828.00
2018-05-16T05:18:11.023Z,6096.00
2018-05-16T05:19:11.174Z,6060.00
2018-05-16T05:20:11.416Z,6648.00
2018-05-16T05:21:11.664Z,7000.00
2018-05-16T05:22:11.905Z,6816.00
2018-05-16T05:23:12.150Z,6628.00
2018-05-16T05:24:12.388Z,6532.00
2018-05-16T05:25:12.631Z,6336.00
2018-05-16T05:26:12.874Z,6128.00
2018-05-16T05:27:13.118Z,6140.00
2018-05-16T05:28:13.359Z,6384.00
2018-05-16T05:29:13.606Z,6436.00
2018-05-16T05:30:13.967Z,6552.00
2018-05-16T05:31:14.098Z,6096.00
2018-05-16T05:32:14.338Z,5788.00
2018-05-16T05:33:14.583Z,5668.00
2018-05-16T05:34:14.826Z,5636.00
2018-05-16T05:35:15.068Z,5732.00
2018-05-16T05:36:15.309Z,5896.00
2018-05-16T05:37:15.551Z,5980.00
2018-05-16T05:38:15.793Z,6016.00
2018-05-16T05:39:16.036Z,5956.00
2018-05-16T05:40:16.279Z,6056.00
2018-05-16T05:41:16.521Z,6024.00
2018-05-16T05:42:16.764Z,5660.00
2018-05-16T05:43:17.041Z,5644.00
2018-05-16T05:44:17.250Z,5612.00
2018-05-16T05:45:17.494Z,5608.00
2018-05-16T05:46:17.735Z,5388.00
2018-05-16T05:47:17.979Z,5440.00
2018-05-16T05:48:18.224Z,5560.00
2018-05-16T05:49:18.520Z,6004.00
2018-05-16T05:50:18.753Z,6496.00
2018-05-16T05:51:19.025Z,7032.00
2018-05-16T05:52:19.268Z,7708.00
2018-05-16T05:53:19.518Z,8428.00
2018-05-16T05:54:19.792Z,9312.00
2018-05-16T05:55:19.999Z,10304.00
2018-05-16T05:56:20.235Z,10540.00
2018-05-16T05:57:20.484Z,11648.00
2018-05-16T05:58:20.730Z,11768.00
2018-05-16T05:59:20.992Z,11928.00
2018-05-16T06:00:21.642Z,11608.00
2018-05-16T06:01:21.681Z,10644.00
2018-05-16T06:02:21.927Z,9412.00
2018-05-16T06:03:22.205Z,8588.00
2018-05-16T06:04:22.478Z,8124.00
2018-05-16T06:05:22.760Z,7488.00
2018-05-16T06:06:22.989Z,6564.00
2018-05-16T06:07:23.238Z,6444.00
2018-05-16T06:08:23.479Z,6360.00
2018-05-16T06:09:23.725Z,6124.00
2018-05-16T06:10:23.968Z,6824.00
2018-05-16T06:11:24.214Z,6900.00
2018-05-16T06:12:24.498Z,7308.00
2018-05-16T06:13:24.741Z,7552.00
2018-05-16T06:14:24.986Z,7876.00
2018-05-16T06:15:25.230Z,7524.00
2018-05-16T06:16:25.475Z,7340.00
2018-05-16T06:17:25.718Z,7316.00
2018-05-16T06:18:25.963Z,7624.00
2018-05-16T06:19:26.312Z,7872.00
2018-05-16T06:20:26.445Z,8856.00
2018-05-16T06:21:26.690Z,9544.00
2018-05-16T06:22:26.935Z,10272.00
2018-05-16T06:23:27.179Z,9820.00
2018-05-16T06:24:27.458Z,9788.00
2018-05-16T06:25:27.709Z,9652.00
2018-05-16T06:26:27.949Z,9516.00
2018-05-16T06:27:28.232Z,10712.00
2018-05-16T06:28:28.440Z,14280.00
2018-05-16T06:29:28.681Z,15712.00
2018-05-16T06:30:28.926Z,14448.00
2018-05-16T06:31:29.173Z,12084.00
2018-05-16T06:32:29.411Z,11996.00
2018-05-16T06:33:29.654Z,10140.00
2018-05-16T06:34:29.898Z,10412.00
2018-05-16T06:35:30.142Z,10360.00
2018-05-16T06:36:30.401Z,9684.00
2018-05-16T06:37:30.633Z,10164.00
2018-05-16T06:38:30.878Z,10760.00
2018-05-16T06:39:31.127Z,13064.00
2018-05-16T06:40:31.370Z,15236.00
2018-05-16T06:41:31.614Z,14360.00
2018-05-16T06:42:31.858Z,14252.00
2018-05-16T06:43:32.101Z,13640.00
2018-05-16T06:44:32.345Z,15152.00
2018-05-16T06:45:32.588Z,14492.00
2018-05-16T06:46:32.833Z,13780.00
2018-05-16T06:47:33.080Z,14392.00
2018-05-16T06:48:33.325Z,15464.00
2018-05-16T06:49:33.573Z,15812.00
2018-05-16T06:50:33.818Z,15128.00
2018-05-16T06:51:34.090Z,15872.00
2018-05-16T06:52:34.310Z,17024.00
2018-05-16T06:53:34.563Z,18976.00
2018-05-16T06:54:34.801Z,18368.00
2018-05-16T06:55:35.048Z,15000.00
2018-05-16T06:56:35.296Z,14956.00
2018-05-16T06:57:35.539Z,13572.00
2018-05-16T06:58:35.784Z,14208.00
2018-05-16T06:59:36.035Z,16192.00
2018-05-16T07:00:36.295Z,17888.00
2018-05-16T07:01:36.538Z,14492.00
2018-05-16T07:02:36.761Z,14944.00
2018-05-16T07:03:37.009Z,14440.00
2018-05-16T07:04:37.257Z,16320.00
2018-05-16T07:05:37.499Z,16244.00
2018-05-16T07:06:37.746Z,15964.00
2018-05-16T07:07:37.993Z,15968.00
2018-05-16T07:08:38.239Z,14948.00
2018-05-16T07:09:38.487Z,14760.00
2018-05-16T07:10:38.733Z,14648.00
2018-05-16T07:11:38.987Z,14412.00
2018-05-16T07:12:39.232Z,13656.00
2018-05-16T07:13:39.474Z,13204.00
2018-05-16T07:14:39.722Z,12624.00
2018-05-16T07:15:39.970Z,12800.00
2018-05-16T07:16:40.219Z,12212.00
2018-05-16T07:17:40.461Z,13116.00
2018-05-16T07:18:40.718Z,12832.00
2018-05-16T07:19:40.962Z,12364.00
2018-05-16T07:20:41.208Z,12320.00
2018-05-16T07:21:41.456Z,11556.00
2018-05-16T07:22:41.700Z,10744.00
2018-05-16T07:23:41.940Z,11108.00
2018-05-16T07:24:42.189Z,11388.00
2018-05-16T07:25:42.435Z,11192.00
2018-05-16T07:26:42.685Z,10188.00
2018-05-16T07:27:42.939Z,9332.00
2018-05-16T07:28:43.187Z,8996.00
2018-05-16T07:29:43.392Z,9396.00
2018-05-16T07:30:43.632Z,10856.00
2018-05-16T07:31:43.868Z,13152.00
2018-05-16T07:32:44.144Z,15288.00
2018-05-16T07:33:44.359Z,15232.00
2018-05-16T07:34:44.596Z,14308.00
2018-05-16T07:35:44.845Z,13884.00
2018-05-16T07:36:45.088Z,15272.00
2018-05-16T07:37:45.332Z,17952.00
2018-05-16T07:38:45.584Z,16468.00
2018-05-16T07:39:45.833Z,15852.00
2018-05-16T07:40:46.047Z,17792.00
2018-05-16T07:41:46.284Z,21024.00
2018-05-16T07:42:46.510Z,23168.00
2018-05-16T07:43:46.763Z,24384.00
2018-05-16T07:44:47.033Z,21216.00
2018-05-16T07:45:47.266Z,18912.00
2018-05-16T07:46:47.511Z,16716.00
2018-05-16T07:47:47.743Z,16416.00
2018-05-16T07:48:47.985Z,17728.00
2018-05-16T07:49:48.232Z,18656.00
2018-05-16T07:50:48.477Z,18464.00
2018-05-16T07:51:48.717Z,16800.00
2018-05-16T07:52:48.957Z,15860.00
2018-05-16T07:53:49.188Z,16640.00
2018-05-16T07:54:49.427Z,16992.00
2018-05-16T07:55:49.674Z,17920.00
2018-05-16T07:56:49.903Z,19200.00
2018-05-16T07:57:50.155Z,18880.00
2018-05-16T07:58:50.420Z,18368.00
2018-05-16T07:59:50.643Z,17600.00
2018-05-16T08:00:50.921Z,22528.00
2018-05-16T08:01:51.170Z,22752.00
2018-05-16T08:02:51.413Z,22624.00
2018-05-16T08:03:51.707Z,22752.00
2018-05-16T08:04:51.959Z,20640.00
2018-05-16T08:05:59.917Z,22816.00
2018-05-16T08:07:02.280Z,24768.00
2018-05-16T08:07:52.978Z,26784.00
2018-05-16T08:08:53.180Z,22752.00
2018-05-16T08:10:03.189Z,21344.00
2018-05-16T08:10:53.604Z,26592.00
2018-05-16T08:12:02.516Z,24768.00
2018-05-16T08:13:02.952Z,20960.00
2018-05-16T08:14:03.286Z,19456.00
2018-05-16T08:15:03.715Z,19872.00
2018-05-16T08:16:04.080Z,27968.00
2018-05-16T08:17:04.458Z,29344.00
2018-05-16T08:18:04.875Z,24192.00
2018-05-16T08:19:05.579Z,22720.00
2018-05-16T08:20:05.599Z,24192.00
2018-05-16T08:21:05.939Z,25184.00
2018-05-16T08:21:57.698Z,22304.00
2018-05-16T08:22:57.936Z,20352.00
2018-05-16T08:23:58.198Z,19456.00
2018-05-16T08:24:58.437Z,19392.00
2018-05-16T08:25:58.683Z,18272.00
2018-05-16T08:26:58.938Z,18944.00
2018-05-16T08:27:59.195Z,19712.00
2018-05-16T08:28:59.430Z,20192.00
2018-05-16T08:29:59.674Z,20992.00
2018-05-16T08:30:59.981Z,21984.00
2018-05-16T08:32:00.175Z,21632.00
2018-05-16T08:33:00.415Z,22304.00
2018-05-16T08:34:00.659Z,22592.00
2018-05-16T08:35:00.903Z,23840.00
2018-05-16T08:36:01.155Z,23008.00
2018-05-16T08:37:01.418Z,20032.00
2018-05-16T08:38:01.640Z,19552.00
2018-05-16T08:39:01.887Z,17920.00
2018-05-16T08:40:02.147Z,15520.00
2018-05-16T08:41:02.389Z,14176.00
2018-05-16T08:42:02.634Z,13268.00
2018-05-16T08:43:02.976Z,20704.00
2018-05-16T08:44:03.142Z,15804.00
2018-05-16T08:45:03.390Z,16704.00
2018-05-16T08:46:03.628Z,20064.00
2018-05-16T08:47:03.866Z,20672.00
2018-05-16T08:48:04.125Z,18368.00
2018-05-16T08:49:04.360Z,17248.00
2018-05-16T08:50:04.588Z,19200.00
2018-05-16T08:51:04.864Z,34592.00
2018-05-16T08:52:05.094Z,21408.00
2018-05-16T08:53:05.339Z,21184.00
2018-05-16T08:54:05.578Z,21824.00
2018-05-16T08:55:05.815Z,21856.00
2018-05-16T08:56:06.056Z,48224.00
2018-05-16T08:57:06.306Z,30784.00
2018-05-16T08:58:06.550Z,55744.00
2018-05-16T08:59:06.805Z,37792.00
2018-05-16T09:00:07.048Z,40544.00
2018-05-16T09:01:07.335Z,32736.00
2018-05-16T09:02:07.538Z,24864.00
2018-05-16T09:03:07.835Z,19648.00
2018-05-16T09:04:08.102Z,16236.00
2018-05-16T09:05:08.348Z,14968.00
2018-05-16T09:06:08.592Z,15196.00
2018-05-16T09:07:08.834Z,16384.00
2018-05-16T09:08:09.087Z,26752.00
2018-05-16T09:09:09.338Z,49568.00
2018-05-16T09:10:09.584Z,32832.00
2018-05-16T09:11:10.182Z,33664.00
2018-05-16T09:12:10.230Z,50848.00
2018-05-16T09:13:10.478Z,31104.00
2018-05-16T09:14:10.738Z,54496.00
2018-05-16T09:15:10.977Z,51584.00
2018-05-16T09:16:11.207Z,51968.00
2018-05-16T09:17:11.472Z,51840.00
2018-05-16T09:18:11.701Z,52096.00
2018-05-16T09:19:11.947Z,52704.00
2018-05-16T09:20:12.201Z,52800.00
2018-05-16T09:21:13.014Z,51904.00
2018-05-16T09:22:12.762Z,51424.00
2018-05-16T09:23:13.008Z,49600.00
2018-05-16T09:24:13.260Z,47552.00
2018-05-16T09:25:13.599Z,46752.00
2018-05-16T09:26:13.757Z,47008.00
2018-05-16T09:27:14.007Z,47296.00
2018-05-16T09:28:14.246Z,46112.00
2018-05-16T09:29:14.497Z,24576.00
2018-05-16T09:30:14.747Z,27616.00
2018-05-16T09:31:14.999Z,47424.00
2018-05-16T09:32:15.250Z,47360.00
2018-05-16T09:33:15.506Z,47552.00
2018-05-16T09:34:15.768Z,49824.00
2018-05-16T09:35:16.018Z,45856.00
2018-05-16T09:36:16.278Z,53216.00
2018-05-16T09:37:16.529Z,42688.00
2018-05-16T09:38:16.791Z,40032.00
2018-05-16T09:39:17.039Z,37568.00
2018-05-16T09:40:17.339Z,34208.00
2018-05-16T09:41:17.552Z,60704.00
2018-05-16T09:42:17.803Z,56128.00
2018-05-16T09:43:18.057Z,58048.00
2018-05-16T09:44:18.392Z,64512.00
2018-05-16T09:45:18.566Z,64768.00
2018-05-16T09:46:18.809Z,39136.00
2018-05-16T09:47:19.065Z,32544.00
2018-05-16T09:48:19.316Z,35008.00
2018-05-16T09:49:19.569Z,32800.00
2018-05-16T09:50:19.825Z,29984.00
2018-05-16T09:51:20.082Z,49504.00
2018-05-16T09:52:20.338Z,28000.00
2018-05-16T09:53:20.595Z,28128.00
2018-05-16T09:54:20.848Z,55936.00
2018-05-16T09:55:21.102Z,27904.00
2018-05-16T09:56:21.356Z,30560.00
2018-05-16T09:57:21.609Z,59264.00
2018-05-16T09:58:21.867Z,30240.00
2018-05-16T09:59:22.115Z,42784.00
2018-05-16T10:00:22.369Z,25664.00
2018-05-16T10:01:22.622Z,24224.00
2018-05-16T10:02:22.875Z,26080.00
2018-05-16T10:03:23.127Z,32256.00
2018-05-16T10:04:23.381Z,62624.00
2018-05-16T10:05:23.633Z,53184.00
2018-05-16T10:06:23.886Z,40992.00
2018-05-16T10:07:24.138Z,30976.00
2018-05-16T10:08:24.391Z,37632.00
2018-05-16T10:09:24.643Z,30144.00
2018-05-16T10:10:24.895Z,24896.00
2018-05-16T10:11:25.146Z,24960.00
2018-05-16T10:12:25.399Z,65632.00
2018-05-16T10:13:25.652Z,68384.00
2018-05-16T10:14:25.905Z,62016.00
2018-05-16T10:15:26.157Z,28672.00
2018-05-16T10:16:26.410Z,65376.00
2018-05-16T10:17:26.662Z,32704.00
2018-05-16T10:18:26.914Z,35776.00
2018-05-16T10:19:27.166Z,52256.00
2018-05-16T10:20:27.420Z,32416.00
2018-05-16T10:21:27.673Z,27456.00
2018-05-16T10:22:27.924Z,24896.00
2018-05-16T10:23:28.176Z,23456.00
2018-05-16T10:24:28.428Z,20960.00
2018-05-16T10:25:28.681Z,19648.00
2018-05-16T10:26:28.934Z,19616.00
2018-05-16T10:27:29.185Z,19680.00
2018-05-16T10:28:29.437Z,56064.00
2018-05-16T10:29:29.689Z,21920.00
2018-05-16T10:30:29.945Z,19680.00
2018-05-16T10:31:30.193Z,43680.00
2018-05-16T10:32:30.445Z,26464.00
2018-05-16T10:33:30.697Z,55200.00
2018-05-16T10:34:30.960Z,23136.00
2018-05-16T10:35:31.202Z,24928.00
2018-05-16T10:36:31.453Z,26880.00
2018-05-16T10:37:31.706Z,24736.00
2018-05-16T10:38:31.956Z,23072.00
2018-05-16T10:39:32.208Z,23104.00
2018-05-16T10:40:32.459Z,53440.00
2018-05-16T10:41:32.722Z,24800.00
2018-05-16T10:42:32.963Z,23392.00
2018-05-16T10:43:33.213Z,22272.00
2018-05-16T10:44:33.464Z,19744.00
2018-05-16T10:45:33.716Z,18880.00
2018-05-16T10:46:33.968Z,21856.00
2018-05-16T10:47:34.219Z,24320.00
2018-05-16T10:48:34.468Z,23168.00
2018-05-16T10:49:34.720Z,26848.00
2018-05-16T10:50:34.972Z,86016.00
2018-05-16T10:51:35.223Z,88640.00
2018-05-16T10:52:35.475Z,81824.00
2018-05-16T10:53:35.726Z,33120.00
2018-05-16T10:54:36.072Z,26976.00
2018-05-16T10:55:36.232Z,23552.00
2018-05-16T10:56:36.479Z,20960.00
2018-05-16T10:57:36.732Z,18080.00
2018-05-16T10:58:36.985Z,15268.00
2018-05-16T10:59:37.235Z,13260.00
2018-05-16T11:00:37.487Z,11740.00
2018-05-16T11:01:37.738Z,10524.00
2018-05-16T11:02:37.998Z,9644.00
2018-05-16T11:03:38.248Z,8980.00
2018-05-16T11:04:38.528Z,8372.00
2018-05-16T11:05:38.810Z,7852.00
2018-05-16T11:06:39.059Z,7416.00
2018-05-16T11:07:39.332Z,6992.00
2018-05-16T11:08:39.623Z,6612.00
2018-05-16T11:09:39.875Z,6336.00
2018-05-16T11:10:40.202Z,6212.00
2018-05-16T11:11:40.456Z,6128.00
2018-05-16T11:12:40.742Z,5992.00
2018-05-16T11:13:40.999Z,5840.00
2018-05-16T11:14:41.248Z,5636.00
2018-05-16T11:15:41.531Z,5572.00
2018-05-16T11:16:41.798Z,5708.00
2018-05-16T11:17:42.072Z,5908.00
2018-05-16T11:18:42.345Z,5972.00
2018-05-16T11:19:42.672Z,5848.00
2018-05-16T11:20:43.044Z,5776.00
2018-05-16T11:21:43.063Z,5844.00
2018-05-16T11:22:43.312Z,6036.00
2018-05-16T11:23:43.565Z,6320.00
2018-05-16T11:24:43.866Z,6676.00
2018-05-16T11:25:44.115Z,7096.00
2018-05-16T11:26:44.418Z,7572.00
2018-05-16T11:27:44.804Z,8316.00
2018-05-16T11:28:45.056Z,9476.00
2018-05-16T11:29:45.305Z,11288.00
2018-05-16T11:30:45.554Z,13588.00
2018-05-16T11:31:45.838Z,14860.00
2018-05-16T11:32:46.109Z,14992.00
2018-05-16T11:33:46.359Z,15204.00
2018-05-16T11:34:46.607Z,15844.00
2018-05-16T11:35:46.880Z,17248.00
2018-05-16T11:36:47.136Z,17856.00
2018-05-16T11:37:47.386Z,18304.00
2018-05-16T11:38:47.961Z,20416.00
2018-05-16T11:39:47.924Z,32960.00
2018-05-16T11:40:48.174Z,33824.00
2018-05-16T11:41:48.425Z,48288.00
2018-05-16T11:42:48.806Z,48352.00
2018-05-16T11:43:48.924Z,63968.00
2018-05-16T11:44:49.175Z,67552.00
2018-05-16T11:45:49.428Z,39008.00
2018-05-16T11:46:49.683Z,35104.00
2018-05-16T11:47:49.942Z,35648.00
2018-05-16T11:48:50.213Z,36992.00
2018-05-16T11:49:50.492Z,37184.00
2018-05-16T11:50:50.750Z,29824.00
2018-05-16T11:51:51.004Z,28480.00
2018-05-16T11:52:51.256Z,29440.00
2018-05-16T11:53:51.507Z,31520.00
2018-05-16T11:54:51.758Z,34112.00
2018-05-16T11:55:52.009Z,27904.00
2018-05-16T11:56:52.259Z,28160.00
2018-05-16T11:57:52.510Z,32000.00
2018-05-16T11:58:52.761Z,34976.00
2018-05-16T11:59:53.011Z,65568.00
2018-05-16T12:00:53.261Z,32032.00
2018-05-16T12:01:53.515Z,32640.00
2018-05-16T12:02:53.795Z,21920.00
2018-05-16T12:03:54.020Z,19584.00
2018-05-16T12:04:54.269Z,18944.00
2018-05-16T12:05:54.519Z,19360.00
2018-05-16T12:06:54.771Z,21440.00
2018-05-16T12:07:55.025Z,26432.00
2018-05-16T12:08:55.273Z,56704.00
2018-05-16T12:09:55.524Z,72640.00
2018-05-16T12:10:56.057Z,58080.00
2018-05-16T12:11:56.094Z,53920.00
2018-05-16T12:12:56.347Z,37088.00
2018-05-16T12:13:56.599Z,28384.00
2018-05-16T12:14:56.882Z,24704.00
2018-05-16T12:15:57.103Z,22624.00
2018-05-16T12:16:57.354Z,21376.00
2018-05-16T12:17:57.617Z,20448.00
2018-05-16T12:18:57.861Z,19136.00